Time;durP1;ratioP1;P1;durP2;ratioP2;P2;SDS_P1;SDS_P2;PMS_P1;PMS_P2;Temp;Humidity;BMP_temperature;BMP_pressure;BME280_temperature;BME280_humidity;BME280_pressure;Samples;Min_cycle;Max_cycle;Signal;HPM_P1;HPM_P2
2023/03/01 09:36:37;;;;;;;19.65;5.07;;;15.70;34.80;;;;;;4988406;28;45243;-74
2023/03/01 09:39:05;;;;;;;10.82;3.65;;;15.00;37.00;;;;;;4989398;28;45221;-73
2023/03/01 09:41:45;;;;;;;8.88;3.65;;;15.00;35.40;;;;;;4989408;28;45162;-74
2023/03/01 09:44:21;;;;;;;8.55;3.25;;;15.00;34.30;;;;;;4986731;28;45295;-74
2023/03/01 09:46:48;;;;;;;7.00;3.53;;;15.00;34.20;;;;;;4989235;28;45434;-74
2023/03/01 09:49:18;;;;;;;7.10;3.70;;;14.90;34.10;;;;;;4989211;28;45233;-75
2023/03/01 09:51:56;;;;;;;7.82;3.30;;;14.90;38.40;;;;;;4989353;28;45200;-76
2023/03/01 09:54:23;;;;;;;5.95;3.83;;;14.90;36.80;;;;;;4989717;28;45050;-74
2023/03/01 09:57:05;;;;;;;5.30;3.25;;;14.90;35.80;;;;;;4988849;28;47607;-74
2023/03/01 09:59:40;;;;;;;5.68;3.47;;;14.90;35.10;;;;;;4988955;28;45225;-73
2023/03/01 10:02:24;;;;;;;5.03;3.40;;;14.90;34.70;;;;;;4989210;28;45292;-74
2023/03/01 10:04:53;;;;;;;7.15;3.65;;;14.90;34.40;;;;;;4989269;28;45442;-75
2023/03/01 10:07:32;;;;;;;5.55;3.28;;;14.90;34.50;;;;;;4988810;28;46839;-75
2023/03/01 10:10:01;;;;;;;4.93;3.17;;;14.90;34.20;;;;;;4988983;28;45364;-75
2023/03/01 10:12:33;;;;;;;5.00;3.05;;;14.90;34.10;;;;;;4989239;28;45398;-74
2023/03/01 10:15:06;;;;;;;6.65;3.60;;;14.90;34.10;;;;;;4988906;28;45241;-75
2023/03/01 10:17:38;;;;;;;9.18;3.45;;;14.90;34.00;;;;;;4986046;28;46530;-76
2023/03/01 10:20:21;;;;;;;5.32;3.25;;;14.90;33.80;;;;;;4989281;28;45177;-75
2023/03/01 10:22:52;;;;;;;7.15;3.40;;;14.90;33.70;;;;;;4986005;28;45238;-75
2023/03/01 10:25:37;;;;;;;6.75;3.00;;;14.90;33.60;;;;;;4989527;28;45161;-75
2023/03/01 10:28:11;;;;;;;5.38;3.55;;;15.00;33.70;;;;;;4988840;28;47507;-75
2023/03/01 10:30:42;;;;;;;6.28;3.45;;;15.00;33.60;;;;;;4988740;28;45288;-75
2023/03/01 10:33:17;;;;;;;5.40;3.38;;;15.00;33.40;;;;;;4988945;28;45229;-75
2023/03/01 10:35:44;;;;;;;5.85;3.22;;;15.00;33.40;;;;;;4991912;28;45130;-75
2023/03/01 10:38:14;;;;;;;6.07;3.25;;;15.00;33.60;;;;;;4988570;28;47894;-76
2023/03/01 10:40:52;;;;;;;6.03;3.20;;;15.00;33.70;;;;;;4987244;28;45259;-75
2023/03/01 10:43:20;;;;;;;6.47;3.58;;;14.90;33.40;;;;;;4988572;28;45251;-75
2023/03/01 10:45:47;;;;;;;5.32;3.42;;;14.90;33.50;;;;;;4988396;28;45498;-75
2023/03/01 10:48:15;;;;;;;4.88;3.05;;;14.90;33.50;;;;;;4988069;28;48394;-75
2023/03/01 10:50:44;;;;;;;5.20;3.33;;;14.90;33.60;;;;;;4988116;28;45225;-75
2023/03/01 10:53:28;;;;;;;4.45;2.72;;;14.90;33.70;;;;;;4988680;28;45154;-74
2023/03/01 10:56:05;;;;;;;5.22;3.33;;;14.90;33.40;;;;;;4988827;28;45122;-75
2023/03/01 10:58:33;;;;;;;5.13;3.33;;;14.90;33.30;;;;;;4988181;28;47576;-74
2023/03/01 11:01:01;;;;;;;6.38;3.80;;;14.90;33.20;;;;;;4988064;28;45349;-74
2023/03/01 11:03:30;;;;;;;10.50;3.72;;;14.90;33.10;;;;;;4988335;28;45400;-74
2023/03/01 11:06:04;;;;;;;6.47;3.13;;;14.90;32.90;;;;;;4988249;28;45054;-73
2023/03/01 11:08:41;;;;;;;4.18;2.63;;;14.90;32.70;;;;;;4984943;28;45409;-73
2023/03/01 11:11:22;;;;;;;6.32;3.20;;;14.90;32.80;;;;;;4988519;28;45230;-74
2023/03/01 11:13:55;;;;;;;5.40;3.00;;;14.90;33.00;;;;;;4987853;28;45272;-75
2023/03/01 11:16:28;;;;;;;6.45;3.25;;;15.00;33.00;;;;;;4988129;28;45338;-74
2023/03/01 11:19:00;;;;;;;7.78;3.38;;;14.90;33.20;;;;;;4987868;28;47294;-75
2023/03/01 11:21:31;;;;;;;5.47;3.08;;;14.90;33.30;;;;;;4987898;28;45829;-73
2023/03/01 11:24:02;;;;;;;5.38;3.20;;;15.00;33.50;;;;;;4988121;28;45205;-74
2023/03/01 11:26:31;;;;;;;4.50;3.28;;;14.90;33.10;;;;;;4985302;28;45253;-74
2023/03/01 11:29:04;;;;;;;5.72;2.72;;;14.90;33.00;;;;;;4987494;28;48234;-74
2023/03/01 11:31:33;;;;;;;6.15;3.28;;;14.90;33.00;;;;;;4990233;28;45629;-74
2023/03/01 11:34:06;;;;;;;5.45;3.20;;;14.90;32.70;;;;;;4988272;28;45205;-76
2023/03/01 11:36:36;;;;;;;5.35;2.97;;;14.90;32.90;;;;;;4987480;28;45201;-73
2023/03/01 11:39:13;;;;;;;7.00;3.33;;;14.90;33.10;;;;;;4987401;28;46704;-75
2023/03/01 11:41:42;;;;;;;6.32;3.30;;;14.90;33.10;;;;;;4987573;28;46279;-77
2023/03/01 11:44:17;;;;;;;5.22;2.75;;;14.90;32.90;;;;;;4987283;28;45303;-77
2023/03/01 11:47:18;;;;;;;4.72;2.97;;;14.90;32.90;;;;;;4987687;28;45327;-75
2023/03/01 11:50:11;;;;;;;5.38;3.15;;;14.90;33.90;;;;;;4979973;28;48860;-75
2023/03/01 11:52:50;;;;;;;6.85;3.38;;;14.90;32.70;;;;;;4980264;28;45187;-76
2023/03/01 11:55:47;;;;;;;6.70;3.25;;;14.90;33.70;;;;;;4987610;28;45365;-75
2023/03/01 11:58:32;;;;;;;5.50;3.40;;;15.00;33.10;;;;;;4987861;28;45197;-76
2023/03/01 12:01:09;;;;;;;6.05;3.08;;;15.00;32.90;;;;;;4987237;28;47060;-76
2023/03/01 12:04:08;;;;;;;6.15;2.90;;;15.00;33.10;;;;;;4986987;28;45316;-75
2023/03/01 12:06:47;;;;;;;6.68;3.10;;;15.00;32.90;;;;;;4987330;28;45090;-76
2023/03/01 12:09:26;;;;;;;5.07;3.15;;;15.00;32.80;;;;;;4987496;28;45363;-76
2023/03/01 12:12:12;;;;;;;6.25;3.10;;;15.10;32.90;;;;;;4987284;28;46507;-77
2023/03/01 12:14:55;;;;;;;6.25;3.55;;;15.00;32.60;;;;;;4984074;28;45257;-77
2023/03/01 12:17:45;;;;;;;4.88;2.88;;;15.00;32.70;;;;;;4987211;28;45181;-76
2023/03/01 12:20:30;;;;;;;4.28;3.03;;;15.00;32.70;;;;;;4987275;28;45343;-76
2023/03/01 12:23:30;;;;;;;7.10;3.17;;;15.00;32.60;;;;;;4986193;28;46581;-77
2023/03/01 12:26:03;;;;;;;5.68;3.63;;;15.00;32.60;;;;;;4983981;28;45218;-76
2023/03/01 12:28:56;;;;;;;6.20;3.20;;;15.00;32.70;;;;;;4987077;28;45274;-76
2023/03/01 12:31:41;;;;;;;6.95;3.50;;;15.00;32.60;;;;;;4988842;28;45363;-76
2023/03/01 12:34:29;;;;;;;3.95;2.72;;;15.00;32.70;;;;;;4986770;28;45321;-76
2023/03/01 12:37:10;;;;;;;5.18;3.40;;;15.00;33.00;;;;;;4986869;28;45124;-76
2023/03/01 12:39:50;;;;;;;7.32;3.70;;;15.00;33.10;;;;;;4986848;28;45167;-76
2023/03/01 12:42:27;;;;;;;5.93;3.30;;;15.00;32.90;;;;;;4986897;28;45367;-76
2023/03/01 12:45:19;;;;;;;5.93;3.42;;;15.00;32.90;;;;;;4986270;28;46888;-76
2023/03/01 12:47:59;;;;;;;6.25;3.25;;;15.00;32.80;;;;;;4979410;28;45199;-77
2023/03/01 12:50:36;;;;;;;7.05;3.78;;;15.00;32.60;;;;;;4986820;28;45193;-77
2023/03/01 12:53:03;;;;;;;5.03;3.22;;;15.00;32.60;;;;;;4986626;28;45591;-74
2023/03/01 12:55:34;;;;;;;7.72;3.42;;;15.10;32.50;;;;;;4985401;28;46888;-75
2023/03/01 12:58:09;;;;;;;6.07;3.28;;;15.10;32.40;;;;;;4986655;28;45185;-76
2023/03/01 13:00:46;;;;;;;5.05;2.88;;;15.20;33.60;;;;;;4986901;28;45350;-76
2023/03/01 13:03:25;;;;;;;5.18;2.88;;;15.20;33.00;;;;;;4986079;28;45419;-75
2023/03/01 13:06:05;;;;;;;3.90;2.70;;;15.20;32.70;;;;;;4986069;28;46575;-75
2023/03/01 13:08:40;;;;;;;5.05;3.05;;;15.10;32.80;;;;;;4986401;28;45694;-75
2023/03/01 13:11:15;;;;;;;5.32;2.60;;;15.10;32.90;;;;;;4983748;28;45156;-76
2023/03/01 13:13:42;;;;;;;4.93;2.40;;;15.10;32.90;;;;;;4986508;28;45296;-75
2023/03/01 13:16:42;;;;;;;6.35;3.20;;;15.10;33.00;;;;;;4986039;28;46653;-76
2023/03/01 13:19:14;;;;;;;5.93;2.83;;;15.10;33.00;;;;;;4986457;28;45298;-75
2023/03/01 13:21:42;;;;;;;4.70;2.72;;;15.10;33.10;;;;;;4986203;28;45225;-76
2023/03/01 13:24:25;;;;;;;7.68;2.83;;;15.10;33.10;;;;;;4986171;28;45231;-75
2023/03/01 13:27:24;;;;;;;4.05;2.15;;;15.10;33.20;;;;;;4985893;28;46719;-75
2023/03/01 13:29:53;;;;;;;5.57;2.95;;;15.00;33.20;;;;;;4986313;28;45212;-75
2023/03/01 13:32:23;;;;;;;5.18;2.58;;;15.00;33.20;;;;;;4986193;28;45381;-75
2023/03/01 13:34:55;;;;;;;4.10;2.42;;;15.10;33.20;;;;;;4986357;28;45211;-75
2023/03/01 13:37:31;;;;;;;5.25;2.63;;;15.10;33.20;;;;;;4985511;28;46590;-75
2023/03/01 13:40:04;;;;;;;5.53;2.63;;;15.10;33.30;;;;;;4986162;28;45552;-75
2023/03/01 13:42:40;;;;;;;7.28;2.55;;;15.10;33.20;;;;;;4986219;28;45209;-75
2023/03/01 13:45:19;;;;;;;4.07;2.58;;;15.20;33.20;;;;;;4983472;28;45297;-74
2023/03/01 13:47:50;;;;;;;3.42;2.50;;;15.20;33.30;;;;;;4985912;28;47991;-76
2023/03/01 13:50:21;;;;;;;4.70;2.30;;;15.20;33.10;;;;;;4985814;28;45134;-75
2023/03/01 13:52:53;;;;;;;4.85;2.38;;;15.20;33.10;;;;;;4986033;28;45323;-75
2023/03/01 13:55:24;;;;;;;3.78;2.25;;;15.20;33.10;;;;;;4986207;28;45297;-75
2023/03/01 13:57:57;;;;;;;4.20;2.45;;;15.10;32.90;;;;;;4985824;28;45543;-76
2023/03/01 14:00:36;;;;;;;3.95;2.40;;;15.10;32.90;;;;;;4985994;28;45232;-74
2023/03/01 14:03:22;;;;;;;6.82;2.55;;;15.10;32.90;;;;;;4966313;28;45290;-75
2023/03/01 14:06:06;;;;;;;4.35;2.53;;;15.10;34.00;;;;;;4966428;28;45522;-75
2023/03/01 14:08:34;;;;;;;4.47;2.63;;;15.10;33.90;;;;;;4966129;28;48190;-75
2023/03/01 14:11:40;;;;;;;4.47;2.10;;;15.20;33.90;;;;;;4966136;28;45404;-75
2023/03/01 14:14:30;;;;;;;2.97;1.88;;;15.20;34.30;;;;;;4966417;28;45232;-75
2023/03/01 14:17:08;;;;;;;4.72;2.20;;;15.20;34.80;;;;;;4969683;28;45064;-75
2023/03/01 14:19:36;;;;;;;4.60;2.13;;;15.20;34.30;;;;;;4969325;28;46999;-76
2023/03/01 14:22:23;;;;;;;3.10;1.98;;;15.20;34.50;;;;;;4969415;28;45286;-75
2023/03/01 14:24:55;;;;;;;3.75;2.10;;;15.20;35.00;;;;;;4971984;28;45411;-76
2023/03/01 14:27:24;;;;;;;4.15;2.28;;;15.20;34.80;;;;;;4969691;28;45150;-76
2023/03/01 14:29:58;;;;;;;3.13;2.00;;;15.30;34.30;;;;;;4969207;28;48312;-76
2023/03/01 14:32:27;;;;;;;2.13;1.77;;;15.30;34.70;;;;;;4969346;28;45220;-76
2023/03/01 14:34:57;;;;;;;3.55;1.88;;;15.30;34.80;;;;;;4968966;28;45150;-77
2023/03/01 14:37:26;;;;;;;3.88;2.38;;;15.30;34.50;;;;;;4968862;28;45213;-75
2023/03/01 14:39:54;;;;;;;3.45;2.00;;;15.30;34.10;;;;;;4969004;28;48566;-76
2023/03/01 14:42:24;;;;;;;6.32;2.22;;;15.30;34.00;;;;;;4969327;28;45225;-76
2023/03/01 14:44:54;;;;;;;2.50;1.67;;;15.30;34.80;;;;;;4969296;28;45376;-76
2023/03/01 14:47:28;;;;;;;2.90;1.98;;;15.30;35.30;;;;;;4969162;28;45237;-76
2023/03/01 14:50:00;;;;;;;3.95;1.98;;;15.30;34.80;;;;;;4968860;28;47000;-76
2023/03/01 14:52:35;;;;;;;4.35;2.08;;;15.30;34.80;;;;;;4969151;28;45090;-76
2023/03/01 14:55:04;;;;;;;3.92;2.00;;;15.30;34.40;;;;;;4968973;28;45272;-77
2023/03/01 14:57:31;;;;;;;4.15;2.10;;;15.30;34.80;;;;;;4969154;28;45481;-75
2023/03/01 15:00:04;;;;;;;3.08;2.03;;;15.30;34.70;;;;;;4968545;28;48490;-76
2023/03/01 15:02:32;;;;;;;3.17;2.15;;;15.30;34.70;;;;;;4968851;28;45130;-76
2023/03/01 15:05:04;;;;;;;3.42;2.10;;;15.20;34.50;;;;;;4968699;28;45206;-76
2023/03/01 15:07:34;;;;;;;3.78;1.95;;;15.30;34.90;;;;;;4969246;28;45427;-76
2023/03/01 15:10:02;;;;;;;2.63;1.98;;;15.30;35.00;;;;;;4968511;28;46311;-76
2023/03/01 15:12:41;;;;;;;4.38;2.30;;;15.30;35.10;;;;;;4968839;28;45144;-75
2023/03/01 15:15:36;;;;;;;3.10;1.90;;;15.30;34.90;;;;;;4968278;28;45212;-76
2023/03/01 15:18:06;;;;;;;3.25;2.00;;;15.40;35.10;;;;;;4968557;28;45238;-75
2023/03/01 15:20:38;;;;;;;3.90;1.95;;;15.40;34.80;;;;;;4968396;28;45768;-76
2023/03/01 15:23:05;;;;;;;3.83;2.20;;;15.40;34.80;;;;;;4971347;28;45142;-76
2023/03/01 15:25:34;;;;;;;3.67;1.83;;;15.40;34.80;;;;;;4968440;28;45162;-76
2023/03/01 15:28:02;;;;;;;2.55;1.80;;;15.40;34.70;;;;;;4967948;28;45131;-76
2023/03/01 15:30:37;;;;;;;4.20;2.22;;;15.40;35.10;;;;;;4968291;28;47092;-76
2023/03/01 15:33:31;;;;;;;3.40;1.77;;;15.40;35.10;;;;;;4968156;28;45687;-76
2023/03/01 15:36:00;;;;;;;3.53;2.00;;;15.40;34.80;;;;;;4968335;28;45278;-76
2023/03/01 15:38:31;;;;;;;3.35;2.28;;;15.30;34.70;;;;;;4968257;28;45186;-76
2023/03/01 15:40:59;;;;;;;3.30;2.05;;;15.40;35.00;;;;;;4968011;28;45451;-77
2023/03/01 15:43:44;;;;;;;3.40;2.10;;;15.30;35.00;;;;;;4968076;28;45390;-76
2023/03/01 15:46:24;;;;;;;3.03;1.80;;;15.30;35.30;;;;;;4968178;28;45198;-76
2023/03/01 15:48:54;;;;;;;3.60;1.95;;;15.40;35.40;;;;;;4968161;28;45064;-76
2023/03/01 15:51:30;;;;;;;4.10;2.10;;;15.30;35.00;;;;;;4967514;28;46820;-76
2023/03/01 15:54:00;;;;;;;4.68;2.17;;;15.30;35.10;;;;;;4967841;28;45231;-76
2023/03/01 15:56:27;;;;;;;4.35;1.70;;;15.30;35.00;;;;;;4968243;28;45087;-76
2023/03/01 15:58:54;;;;;;;3.55;2.20;;;15.40;35.30;;;;;;4967870;28;45216;-76
2023/03/01 16:01:20;;;;;;;4.30;2.08;;;15.40;35.10;;;;;;4967543;28;47114;-76
2023/03/01 16:03:48;;;;;;;2.70;1.73;;;15.40;35.40;;;;;;4967828;28;45157;-77
2023/03/01 16:06:14;;;;;;;3.17;2.08;;;15.40;35.30;;;;;;4967514;28;45094;-77
2023/03/01 16:08:42;;;;;;;2.95;2.00;;;15.40;35.10;;;;;;4967962;28;45311;-76
2023/03/01 16:11:16;;;;;;;3.13;1.85;;;15.40;34.90;;;;;;4967306;28;45262;-74
2023/03/01 16:13:43;;;;;;;4.70;1.90;;;15.40;35.00;;;;;;4967073;28;45403;-74
2023/03/01 16:16:14;;;;;;;3.85;2.17;;;15.40;35.20;;;;;;4966890;28;45226;-74
2023/03/01 16:18:42;;;;;;;7.07;2.17;;;15.50;35.50;;;;;;4990428;28;45194;-75
2023/03/01 16:21:13;;;;;;;3.65;1.90;;;15.50;35.80;;;;;;4985707;28;48563;-73
2023/03/01 16:23:41;;;;;;;6.85;2.08;;;15.40;35.70;;;;;;4985459;28;45366;-73
2023/03/01 16:26:08;;;;;;;6.07;2.20;;;15.40;35.70;;;;;;4985565;28;45493;-73
2023/03/01 16:28:35;;;;;;;6.72;1.98;;;15.30;35.70;;;;;;4986581;28;45478;-73
2023/03/01 16:31:02;;;;;;;5.18;2.20;;;15.30;36.10;;;;;;4986110;28;48171;-73
2023/03/01 16:33:29;;;;;;;3.60;1.95;;;15.30;35.50;;;;;;4985720;28;45256;-74
2023/03/01 16:35:56;;;;;;;4.68;2.15;;;15.30;35.70;;;;;;4985656;28;45281;-73
2023/03/01 16:38:23;;;;;;;2.65;1.95;;;15.30;35.80;;;;;;4984212;28;45463;-74
2023/03/01 16:40:52;;;;;;;3.58;1.90;;;15.30;35.80;;;;;;4981831;28;48406;-74
2023/03/01 16:43:19;;;;;;;3.00;1.98;;;15.30;35.70;;;;;;4985586;28;45264;-74
2023/03/01 16:45:46;;;;;;;2.55;1.75;;;15.30;35.50;;;;;;4985565;28;45197;-74
2023/03/01 16:48:13;;;;;;;4.60;2.00;;;15.30;35.50;;;;;;4985601;28;45340;-73
2023/03/01 16:50:41;;;;;;;4.43;2.08;;;15.30;35.70;;;;;;4977482;28;45489;-74
2023/03/01 16:53:08;;;;;;;4.75;2.50;;;15.40;35.80;;;;;;4985311;28;45423;-74
2023/03/01 16:55:35;;;;;;;3.13;1.92;;;15.40;35.80;;;;;;4985396;28;45410;-73
2023/03/01 16:58:04;;;;;;;3.83;2.20;;;15.40;35.70;;;;;;4998134;28;45232;-74
2023/03/01 17:00:30;;;;;;;3.35;1.98;;;15.40;35.70;;;;;;5005559;28;48000;-74
2023/03/01 17:02:57;;;;;;;3.42;1.90;;;15.40;35.90;;;;;;5005882;28;45301;-74
2023/03/01 17:05:25;;;;;;;3.45;1.80;;;15.50;36.30;;;;;;5005980;28;45330;-74
2023/03/01 17:07:55;;;;;;;3.38;1.92;;;15.50;37.50;;;;;;5005918;28;45160;-74
2023/03/01 17:10:22;;;;;;;3.40;1.80;;;15.40;36.40;;;;;;5005377;28;46519;-74
2023/03/01 17:12:50;;;;;;;2.55;1.65;;;15.40;36.40;;;;;;4995240;28;45911;-74
2023/03/01 17:15:18;;;;;;;2.65;1.60;;;15.40;36.40;;;;;;4988440;28;45126;-74
2023/03/01 17:17:46;;;;;;;3.35;1.83;;;15.40;36.40;;;;;;4986198;28;45641;-74
2023/03/01 17:20:14;;;;;;;4.78;1.80;;;15.40;36.40;;;;;;4985824;28;45373;-74
2023/03/01 17:22:40;;;;;;;3.22;1.70;;;15.40;36.50;;;;;;4985785;28;45155;-74
2023/03/01 17:25:10;;;;;;;3.20;1.65;;;15.40;36.40;;;;;;4985756;28;45229;-74
2023/03/01 17:27:37;;;;;;;4.15;2.05;;;15.40;36.50;;;;;;4986332;28;45460;-74
2023/03/01 17:30:05;;;;;;;4.80;2.45;;;15.40;36.40;;;;;;4985850;28;47152;-74
2023/03/01 17:32:33;;;;;;;3.60;1.85;;;15.40;37.40;;;;;;4985967;28;45150;-74
2023/03/01 17:35:00;;;;;;;3.10;1.90;;;15.40;36.20;;;;;;4986212;28;45426;-74
2023/03/01 17:37:27;;;;;;;3.38;1.60;;;15.40;36.20;;;;;;4985914;28;45280;-74
2023/03/01 17:39:54;;;;;;;3.80;1.77;;;15.40;36.40;;;;;;4985433;28;45483;-74
2023/03/01 17:42:20;;;;;;;3.38;1.83;;;15.40;36.10;;;;;;4985649;28;45256;-74
2023/03/01 17:44:47;;;;;;;2.80;1.80;;;15.50;36.20;;;;;;4985513;28;45335;-73
2023/03/01 17:47:14;;;;;;;3.03;1.77;;;15.50;36.20;;;;;;4985111;28;45387;-73
2023/03/01 17:49:42;;;;;;;2.50;1.70;;;15.40;36.20;;;;;;4985594;28;46288;-74
2023/03/01 17:52:09;;;;;;;3.10;1.90;;;15.50;36.40;;;;;;4988841;28;45677;-74
2023/03/01 17:54:36;;;;;;;3.47;1.88;;;15.40;36.40;;;;;;4988885;28;45263;-74
2023/03/01 17:57:02;;;;;;;2.92;1.83;;;15.40;36.30;;;;;;4988650;28;45185;-73
2023/03/01 17:59:32;;;;;;;2.97;1.95;;;15.40;36.50;;;;;;4988928;28;47070;-74
2023/03/01 18:02:00;;;;;;;3.33;1.98;;;15.40;36.60;;;;;;4989037;28;45712;-74
2023/03/01 18:04:27;;;;;;;4.03;1.73;;;15.30;36.40;;;;;;4988482;28;45193;-74
2023/03/01 18:06:55;;;;;;;2.92;1.85;;;15.30;36.20;;;;;;4988207;28;45233;-74
2023/03/01 18:09:22;;;;;;;4.63;1.73;;;15.30;36.20;;;;;;4988260;28;48198;-74
2023/03/01 18:11:49;;;;;;;3.55;1.88;;;15.30;36.10;;;;;;4988464;28;45311;-74
2023/03/01 18:14:16;;;;;;;3.08;1.90;;;15.30;36.20;;;;;;4991535;28;45312;-74
2023/03/01 18:16:43;;;;;;;3.38;1.70;;;15.30;36.30;;;;;;4988776;28;45515;-74
2023/03/01 18:19:11;;;;;;;2.63;2.00;;;15.30;36.40;;;;;;4988204;28;46613;-74
2023/03/01 18:21:38;;;;;;;2.90;1.95;;;15.30;36.30;;;;;;4988092;28;45336;-74
2023/03/01 18:24:07;;;;;;;3.00;1.63;;;15.30;36.30;;;;;;4988678;28;45228;-74
2023/03/01 18:26:33;;;;;;;6.00;2.05;;;15.30;36.40;;;;;;4988708;28;45182;-73
2023/03/01 18:29:03;;;;;;;2.75;1.83;;;15.40;36.50;;;;;;4988084;28;47734;-74
2023/03/01 18:31:32;;;;;;;2.80;1.80;;;15.40;36.70;;;;;;4991645;28;46018;-74
2023/03/01 18:34:00;;;;;;;3.00;2.00;;;15.40;36.60;;;;;;4988827;28;45244;-74
2023/03/01 18:36:29;;;;;;;3.75;2.08;;;15.40;36.60;;;;;;4988333;28;45462;-74
2023/03/01 18:38:56;;;;;;;3.58;1.98;;;15.40;36.40;;;;;;4988309;28;47557;-73
2023/03/01 18:41:27;;;;;;;2.88;1.70;;;15.40;36.40;;;;;;4988386;28;45244;-74
2023/03/01 18:43:54;;;;;;;3.53;2.13;;;15.30;36.40;;;;;;4988518;28;45205;-73
2023/03/01 18:46:22;;;;;;;2.78;1.80;;;15.30;36.20;;;;;;4988353;28;45142;-74
2023/03/01 18:48:49;;;;;;;2.85;1.88;;;15.30;36.40;;;;;;4987610;28;46412;-73
2023/03/01 18:51:18;;;;;;;4.53;2.15;;;15.30;36.30;;;;;;4987925;28;45142;-74
2023/03/01 18:53:45;;;;;;;3.85;2.17;;;15.30;36.30;;;;;;4988083;28;45317;-74
2023/03/01 18:56:13;;;;;;;3.45;1.80;;;15.30;36.30;;;;;;4988049;28;45447;-73
2023/03/01 18:58:42;;;;;;;3.22;2.25;;;15.30;36.30;;;;;;4987490;28;46599;-74
2023/03/01 19:01:14;;;;;;;3.78;1.83;;;15.30;36.30;;;;;;4987079;28;45386;-74
2023/03/01 19:03:41;;;;;;;3.65;2.17;;;15.30;36.40;;;;;;4987587;28;45217;-73
2023/03/01 19:06:08;;;;;;;2.95;1.88;;;15.30;36.40;;;;;;4987679;28;45417;-74
2023/03/01 19:08:34;;;;;;;3.08;1.95;;;15.30;36.40;;;;;;4987683;28;47254;-75
2023/03/01 19:11:03;;;;;;;4.63;2.20;;;15.30;36.50;;;;;;4990087;28;45942;-74
2023/03/01 19:13:30;;;;;;;3.45;1.90;;;15.30;36.50;;;;;;4988103;28;45139;-74
2023/03/01 19:16:05;;;;;;;3.05;2.03;;;15.40;36.50;;;;;;4987836;28;45473;-74
2023/03/01 19:18:31;;;;;;;3.63;2.25;;;15.40;36.50;;;;;;4987425;28;47739;-74
2023/03/01 19:20:59;;;;;;;3.05;2.00;;;15.40;36.20;;;;;;4987346;28;45266;-74
2023/03/01 19:23:26;;;;;;;3.10;1.75;;;15.40;36.20;;;;;;4987631;28;45434;-74
2023/03/01 19:25:58;;;;;;;3.17;1.85;;;15.40;36.30;;;;;;4987405;28;45188;-74
2023/03/01 19:28:25;;;;;;;4.45;2.10;;;15.40;36.30;;;;;;4987160;28;45449;-74
2023/03/01 19:30:52;;;;;;;5.50;2.08;;;15.40;36.20;;;;;;4987546;28;45221;-74
2023/03/01 19:33:20;;;;;;;4.90;2.33;;;15.40;36.20;;;;;;4987096;28;45467;-74
2023/03/01 19:35:47;;;;;;;3.20;2.20;;;15.40;36.20;;;;;;4987571;28;45241;-74
2023/03/01 19:38:14;;;;;;;2.80;2.10;;;15.40;36.10;;;;;;4987057;28;47345;-74
2023/03/01 19:40:41;;;;;;;4.32;2.30;;;15.40;36.00;;;;;;4987048;28;45332;-74
2023/03/01 19:43:08;;;;;;;2.92;1.98;;;15.30;36.10;;;;;;4987449;28;45236;-74
2023/03/01 19:45:34;;;;;;;3.35;1.88;;;15.30;36.10;;;;;;4987052;28;45283;-74
2023/03/01 19:48:01;;;;;;;3.80;2.10;;;15.30;36.00;;;;;;4986726;28;48600;-74
2023/03/01 19:50:30;;;;;;;3.67;1.92;;;15.30;36.00;;;;;;4987271;28;45401;-74
2023/03/01 19:52:56;;;;;;;4.40;2.17;;;15.30;36.10;;;;;;4987463;28;45292;-74
2023/03/01 19:55:23;;;;;;;3.15;2.03;;;15.30;36.20;;;;;;4987163;28;45238;-74
2023/03/01 19:57:50;;;;;;;3.30;2.10;;;15.30;36.00;;;;;;4986653;28;46410;-74
2023/03/01 20:00:17;;;;;;;3.55;2.10;;;15.30;36.20;;;;;;4987114;28;45190;-74
2023/03/01 20:02:44;;;;;;;4.78;2.45;;;15.30;36.10;;;;;;4986914;28;45246;-74
2023/03/01 20:05:11;;;;;;;3.70;2.22;;;15.30;36.00;;;;;;4987033;28;45176;-74
2023/03/01 20:07:39;;;;;;;3.25;1.92;;;15.40;36.20;;;;;;4989145;28;46846;-74
2023/03/01 20:10:07;;;;;;;2.75;2.10;;;15.40;36.20;;;;;;4980664;28;45280;-76
2023/03/01 20:12:36;;;;;;;3.22;2.25;;;15.40;36.20;;;;;;4999338;28;45287;-75
2023/03/01 20:15:02;;;;;;;5.20;2.20;;;15.40;36.00;;;;;;5006507;28;45316;-75
2023/03/01 20:17:29;;;;;;;3.20;2.00;;;15.40;36.10;;;;;;4990532;28;45348;-75
2023/03/01 20:19:56;;;;;;;3.38;2.40;;;15.40;36.10;;;;;;4986365;28;45275;-75
2023/03/01 20:22:23;;;;;;;3.15;1.80;;;15.40;35.90;;;;;;4986121;28;45296;-75
2023/03/01 20:24:51;;;;;;;3.83;2.40;;;15.40;36.10;;;;;;4986702;28;45350;-75
2023/03/01 20:27:18;;;;;;;4.60;2.45;;;15.30;35.90;;;;;;4986039;28;46288;-75
2023/03/01 20:29:45;;;;;;;4.25;2.17;;;15.30;36.00;;;;;;4986331;28;45184;-75
2023/03/01 20:32:12;;;;;;;3.15;2.20;;;15.30;35.80;;;;;;4986175;28;45361;-75
2023/03/01 20:34:39;;;;;;;5.47;2.38;;;15.30;35.90;;;;;;4986548;28;45219;-75
2023/03/01 20:37:07;;;;;;;2.78;1.90;;;15.30;36.00;;;;;;4987249;28;46430;-75
2023/03/01 20:39:34;;;;;;;3.88;2.45;;;15.30;35.90;;;;;;4986163;28;45149;-75
2023/03/01 20:42:02;;;;;;;3.70;2.35;;;15.30;35.70;;;;;;4986013;28;45197;-75
2023/03/01 20:44:29;;;;;;;4.10;2.47;;;15.30;35.70;;;;;;4985805;28;45281;-75
2023/03/01 20:46:57;;;;;;;3.85;2.20;;;15.30;35.70;;;;;;4967753;28;45489;-74
2023/03/01 20:49:23;;;;;;;4.82;2.45;;;15.30;35.70;;;;;;4981392;28;45289;-75
2023/03/01 20:51:50;;;;;;;4.57;2.55;;;15.30;35.40;;;;;;4985949;28;45402;-75
2023/03/01 20:54:17;;;;;;;3.65;2.33;;;15.30;35.50;;;;;;4986436;28;45180;-75
2023/03/01 20:56:44;;;;;;;3.47;2.20;;;15.30;35.40;;;;;;4986029;28;48364;-75
2023/03/01 20:59:13;;;;;;;3.90;2.55;;;15.30;35.50;;;;;;4985871;28;45196;-75
2023/03/01 21:01:40;;;;;;;3.70;2.38;;;15.40;35.60;;;;;;4986086;28;45239;-75
2023/03/01 21:04:08;;;;;;;3.58;2.25;;;15.40;35.50;;;;;;4988611;28;45399;-75
2023/03/01 21:06:34;;;;;;;3.88;2.17;;;15.40;35.50;;;;;;4985922;28;47340;-75
2023/03/01 21:09:01;;;;;;;4.57;2.47;;;15.40;36.70;;;;;;4985603;28;45410;-74
2023/03/01 21:11:28;;;;;;;4.80;2.75;;;15.40;35.40;;;;;;4985846;28;45248;-75
2023/03/01 21:13:55;;;;;;;3.67;2.33;;;15.30;35.30;;;;;;4985543;28;45191;-75
2023/03/01 21:16:24;;;;;;;4.07;2.83;;;15.30;35.00;;;;;;4985498;28;46344;-75
2023/03/01 21:18:50;;;;;;;4.82;2.72;;;15.20;34.50;;;;;;4993494;28;45336;-76
2023/03/01 21:21:20;;;;;;;3.58;2.30;;;15.30;36.90;;;;;;4985732;28;45514;-75
2023/03/01 21:23:47;;;;;;;5.78;2.33;;;15.30;35.90;;;;;;4995270;28;45584;-75
2023/03/01 21:26:18;;;;;;;4.38;2.83;;;15.20;35.90;;;;;;5002008;28;45304;-75
2023/03/01 21:28:45;;;;;;;3.65;2.40;;;15.20;35.70;;;;;;4988723;28;45201;-75
2023/03/01 21:31:15;;;;;;;4.35;2.58;;;15.30;35.70;;;;;;4989683;28;45295;-75
2023/03/01 21:33:47;;;;;;;5.57;2.65;;;15.20;35.60;;;;;;4989273;28;45412;-75
2023/03/01 21:36:14;;;;;;;4.68;2.58;;;15.30;35.70;;;;;;4989136;28;47291;-76
2023/03/01 21:38:43;;;;;;;4.05;2.55;;;15.30;35.70;;;;;;4989677;28;45235;-76
2023/03/01 21:41:11;;;;;;;5.18;2.95;;;15.30;35.90;;;;;;4989086;28;45154;-76
2023/03/01 21:43:39;;;;;;;4.80;2.63;;;15.30;35.70;;;;;;4989277;28;45460;-75
2023/03/01 21:46:09;;;;;;;5.78;2.40;;;15.30;35.70;;;;;;4989041;28;46263;-75
2023/03/01 21:48:36;;;;;;;4.88;2.70;;;15.30;35.70;;;;;;4989564;28;45273;-75
2023/03/01 21:51:05;;;;;;;4.28;2.65;;;15.30;35.70;;;;;;4989181;28;45228;-76
2023/03/01 21:53:34;;;;;;;5.38;3.03;;;15.30;35.70;;;;;;4989130;28;45316;-75
2023/03/01 21:56:02;;;;;;;5.07;2.83;;;15.30;35.70;;;;;;4988737;28;46375;-75
2023/03/01 21:58:30;;;;;;;4.50;2.80;;;15.30;35.70;;;;;;4989056;28;45280;-75
2023/03/01 22:00:59;;;;;;;5.45;3.10;;;15.30;35.70;;;;;;4991518;28;45234;-75
2023/03/01 22:03:26;;;;;;;6.93;3.20;;;15.30;35.70;;;;;;4988714;28;45585;-75
2023/03/01 22:05:57;;;;;;;6.60;3.47;;;15.20;35.00;;;;;;4988379;28;45774;-76
2023/03/01 22:08:26;;;;;;;4.10;2.70;;;15.20;34.90;;;;;;4988577;28;45223;-75
2023/03/01 22:10:54;;;;;;;7.32;3.00;;;15.10;34.60;;;;;;4988448;28;45284;-75
2023/03/01 22:13:21;;;;;;;7.50;3.45;;;15.10;34.80;;;;;;4988309;28;45212;-75
2023/03/01 22:15:48;;;;;;;4.95;3.47;;;15.10;34.70;;;;;;4987920;28;45760;-75
2023/03/01 22:18:15;;;;;;;6.18;3.40;;;15.00;34.70;;;;;;4987632;28;45161;-75
2023/03/01 22:20:42;;;;;;;5.30;3.03;;;15.00;34.60;;;;;;4987622;28;45288;-74
2023/03/01 22:23:09;;;;;;;4.28;2.50;;;15.00;34.60;;;;;;4987881;28;45340;-74
2023/03/01 22:25:42;;;;;;;5.22;3.10;;;15.00;34.60;;;;;;4987300;28;45248;-75
2023/03/01 22:28:09;;;;;;;7.38;3.20;;;15.10;34.90;;;;;;4986905;28;46115;-76
2023/03/01 22:30:36;;;;;;;4.82;2.88;;;15.10;35.50;;;;;;4988221;28;45405;-75
2023/03/01 22:33:02;;;;;;;4.68;3.17;;;15.10;35.90;;;;;;4989402;28;45267;-75
2023/03/01 22:35:29;;;;;;;5.28;3.05;;;15.20;36.30;;;;;;5000933;28;45455;-75
2023/03/01 22:37:56;;;;;;;6.35;3.08;;;15.20;36.40;;;;;;5006570;28;45940;-75
2023/03/01 22:40:23;;;;;;;4.25;2.55;;;15.20;36.40;;;;;;4992786;28;45145;-75
2023/03/01 22:42:53;;;;;;;4.68;2.80;;;15.20;36.50;;;;;;4987682;28;45581;-75